Time;durP1;ratioP1;P1;durP2;ratioP2;P2;SDS_P1;SDS_P2;PMS_P1;PMS_P2;Temp;Humidity;BMP_temperature;BMP_pressure;BME280_temperature;BME280_humidity;BME280_pressure;Samples;Min_cycle;Max_cycle;Signal;HPM_P1;HPM_P2
2023/07/30 00:02:21;;;;;;;7.28;4.88;;;15.40;79.40;;;;;;5074340;28;20052;-70
2023/07/30 00:04:49;;;;;;;7.10;4.40;;;15.50;79.20;;;;;;5039118;28;20061;-70
2023/07/30 00:07:16;;;;;;;6.93;4.65;;;15.50;79.30;;;;;;5053843;28;20175;-73
2023/07/30 00:09:43;;;;;;;7.88;4.60;;;15.60;79.60;;;;;;5054148;28;20045;-75
2023/07/30 00:12:11;;;;;;;8.15;4.30;;;15.70;79.30;;;;;;5048802;28;20086;-74
2023/07/30 00:14:38;;;;;;;6.57;4.40;;;15.70;78.90;;;;;;5073924;28;20090;-75
2023/07/30 00:17:05;;;;;;;7.00;4.80;;;15.80;78.70;;;;;;5056215;28;20511;-74
2023/07/30 00:19:33;;;;;;;14.63;4.47;;;15.90;78.70;;;;;;5073722;28;20056;-75
2023/07/30 00:22:00;;;;;;;8.95;4.53;;;16.00;78.70;;;;;;5073736;28;20040;-75
2023/07/30 00:24:28;;;;;;;9.00;4.20;;;16.00;78.60;;;;;;5074058;28;20086;-75
2023/07/30 00:26:55;;;;;;;5.90;3.70;;;16.00;78.40;;;;;;5073872;28;20085;-75
2023/07/30 00:29:22;;;;;;;7.05;3.70;;;16.10;78.50;;;;;;5072783;28;20037;-75
2023/07/30 00:31:49;;;;;;;6.93;3.90;;;16.20;78.70;;;;;;5072223;28;20032;-75
2023/07/30 00:34:17;;;;;;;10.23;4.07;;;16.20;78.30;;;;;;5072446;28;20427;-76
2023/07/30 00:36:44;;;;;;;3.97;3.03;;;16.30;78.00;;;;;;5055207;28;20506;-75
2023/07/30 00:39:11;;;;;;;3.00;2.30;;;16.40;77.40;;;;;;5069238;28;20043;-75
2023/07/30 00:41:39;;;;;;;8.88;2.92;;;16.50;76.80;;;;;;5062847;28;20098;-80
2023/07/30 00:44:06;;;;;;;5.80;2.70;;;16.50;76.30;;;;;;5070985;28;20493;-76
2023/07/30 00:46:33;;;;;;;4.00;2.08;;;16.70;76.10;;;;;;5054051;28;20037;-76
2023/07/30 00:49:00;;;;;;;4.55;2.42;;;16.70;75.70;;;;;;5055185;28;20108;-71
2023/07/30 00:51:28;;;;;;;3.72;2.10;;;16.80;75.40;;;;;;5055801;28;20028;-76
2023/07/30 00:53:55;;;;;;;2.78;1.83;;;16.80;75.00;;;;;;5073608;28;20119;-76
2023/07/30 00:56:22;;;;;;;3.20;2.25;;;16.90;74.50;;;;;;5073436;28;20028;-76
2023/07/30 00:58:49;;;;;;;3.45;2.17;;;17.00;74.30;;;;;;5071802;28;20048;-75
2023/07/30 01:01:17;;;;;;;3.53;2.08;;;17.10;73.90;;;;;;5089069;28;20393;-76
2023/07/30 01:03:44;;;;;;;3.00;2.10;;;17.10;73.60;;;;;;5089168;28;20041;-75
2023/07/30 01:06:11;;;;;;;2.90;1.88;;;17.20;73.50;;;;;;5072041;28;20036;-76
2023/07/30 01:08:38;;;;;;;4.72;2.05;;;17.30;73.20;;;;;;5073145;28;20033;-76
2023/07/30 01:11:06;;;;;;;3.15;1.70;;;17.30;72.80;;;;;;5071901;28;20054;-75
2023/07/30 01:13:33;;;;;;;2.83;1.70;;;17.40;72.40;;;;;;5088826;28;20040;-76
2023/07/30 01:16:01;;;;;;;2.75;1.50;;;17.50;71.80;;;;;;5071799;28;20029;-76
2023/07/30 01:18:28;;;;;;;3.92;1.67;;;17.60;71.70;;;;;;5088755;28;20028;-75
2023/07/30 01:20:59;;;;;;;3.97;1.60;;;17.60;71.30;;;;;;5088467;28;20024;-75
2023/07/30 01:23:26;;;;;;;2.35;1.50;;;17.70;70.80;;;;;;5087823;28;20029;-77
2023/07/30 01:26:22;;;;;;;3.80;1.23;;;17.70;71.10;;;;;;5055123;28;20389;-75
2023/07/30 01:28:51;;;;;;;2.75;1.50;;;17.80;70.50;;;;;;5080614;28;20036;-75
2023/07/30 01:31:19;;;;;;;3.08;1.50;;;17.90;70.10;;;;;;5055588;28;20037;-74
2023/07/30 01:33:50;;;;;;;4.82;1.50;;;18.00;69.10;;;;;;5037835;28;20025;-74
2023/07/30 01:36:17;;;;;;;3.80;1.17;;;18.10;69.00;;;;;;5063282;28;20052;-73
2023/07/30 01:38:44;;;;;;;2.03;1.10;;;18.10;68.60;;;;;;5052121;28;20482;-72
2023/07/30 01:41:11;;;;;;;1.80;1.15;;;18.20;68.00;;;;;;5065182;28;20028;-73
2023/07/30 01:43:39;;;;;;;2.35;1.20;;;18.20;67.90;;;;;;5072236;28;20120;-73
2023/07/30 01:46:06;;;;;;;3.40;1.35;;;18.30;67.40;;;;;;5071757;28;20548;-73
2023/07/30 01:48:33;;;;;;;2.83;1.20;;;18.30;67.30;;;;;;5089948;28;20077;-73
2023/07/30 01:51:00;;;;;;;1.73;1.30;;;18.30;67.50;;;;;;5090033;28;20055;-73
2023/07/30 01:53:28;;;;;;;3.33;1.30;;;18.30;67.10;;;;;;5075813;28;20055;-73
2023/07/30 01:55:55;;;;;;;1.85;1.00;;;18.30;66.80;;;;;;5069837;28;20036;-74
2023/07/30 01:58:22;;;;;;;1.80;1.10;;;18.40;66.50;;;;;;5069293;28;20083;-75
2023/07/30 02:00:49;;;;;;;2.35;1.30;;;18.40;66.10;;;;;;5069667;28;20033;-73
2023/07/30 02:03:16;;;;;;;1.75;1.20;;;18.50;65.70;;;;;;5051707;28;20039;-72
2023/07/30 02:05:44;;;;;;;1.40;1.00;;;18.50;65.30;;;;;;5069565;28;20088;-75
2023/07/30 02:08:13;;;;;;;1.52;1.00;;;18.50;64.40;;;;;;5069498;28;20111;-73
2023/07/30 02:10:40;;;;;;;3.22;1.00;;;18.60;64.50;;;;;;5069112;28;20029;-72
2023/07/30 02:13:07;;;;;;;3.47;1.02;;;18.60;63.80;;;;;;5069473;28;20024;-74
2023/07/30 02:15:34;;;;;;;2.05;1.08;;;18.70;63.70;;;;;;5049794;28;20060;-73
2023/07/30 02:18:02;;;;;;;2.58;1.30;;;18.70;63.60;;;;;;5069370;28;20070;-71
2023/07/30 02:20:29;;;;;;;3.13;1.10;;;18.80;63.70;;;;;;5068919;28;20140;-72
2023/07/30 02:22:56;;;;;;;2.58;1.30;;;18.80;63.40;;;;;;5049590;28;20063;-66
2023/07/30 02:25:23;;;;;;;5.50;1.30;;;19.00;62.50;;;;;;5069234;28;20049;-66
2023/07/30 02:27:51;;;;;;;1.23;1.00;;;19.00;62.30;;;;;;5069784;28;20032;-67
2023/07/30 02:30:18;;;;;;;0.85;0.82;;;18.90;62.40;;;;;;5051601;28;20041;-67
2023/07/30 02:32:45;;;;;;;1.30;1.17;;;19.00;62.50;;;;;;5069291;28;20025;-67
2023/07/30 02:35:12;;;;;;;2.72;1.30;;;19.00;62.50;;;;;;5068795;28;20036;-66
2023/07/30 02:37:40;;;;;;;2.28;1.30;;;19.00;62.50;;;;;;5069230;28;20063;-66
2023/07/30 02:40:07;;;;;;;3.33;1.33;;;19.00;62.70;;;;;;5051705;28;20509;-67
2023/07/30 02:42:35;;;;;;;2.85;1.20;;;19.00;62.70;;;;;;5051756;28;20064;-66
2023/07/30 02:45:02;;;;;;;4.22;1.50;;;19.20;62.50;;;;;;5068697;28;20083;-66
2023/07/30 02:47:29;;;;;;;2.15;1.30;;;19.20;62.20;;;;;;5068693;28;20025;-67
2023/07/30 02:49:56;;;;;;;1.85;1.15;;;19.30;62.60;;;;;;5069142;28;20148;-66
2023/07/30 02:52:24;;;;;;;2.47;1.23;;;19.20;62.70;;;;;;5067754;28;20447;-67
2023/07/30 02:54:51;;;;;;;3.05;1.25;;;19.20;62.20;;;;;;5069329;28;20040;-66
2023/07/30 02:57:18;;;;;;;1.83;1.20;;;19.20;62.40;;;;;;5069204;28;20119;-66
2023/07/30 02:59:45;;;;;;;1.58;1.10;;;19.20;62.10;;;;;;5069180;28;20043;-67
2023/07/30 03:02:13;;;;;;;2.08;1.10;;;19.30;62.00;;;;;;5069068;28;20113;-67
2023/07/30 03:04:40;;;;;;;2.10;1.30;;;19.30;62.10;;;;;;5069073;28;20083;-67
2023/07/30 03:07:08;;;;;;;2.92;1.30;;;19.30;62.00;;;;;;5068587;28;20036;-67
2023/07/30 03:09:35;;;;;;;1.38;1.10;;;19.30;61.40;;;;;;5050559;28;20611;-67
2023/07/30 03:12:03;;;;;;;2.28;1.20;;;19.40;61.50;;;;;;5068680;28;20025;-67
2023/07/30 03:14:30;;;;;;;2.75;1.40;;;19.40;61.50;;;;;;5066919;28;20138;-67
2023/07/30 03:16:57;;;;;;;4.72;1.00;;;19.50;61.20;;;;;;5052934;28;20454;-68
2023/07/30 03:19:25;;;;;;;1.85;1.10;;;19.60;61.10;;;;;;5072665;28;20059;-68
2023/07/30 03:21:52;;;;;;;2.50;1.10;;;19.60;60.60;;;;;;5072433;28;20545;-68
2023/07/30 03:24:19;;;;;;;3.58;1.27;;;19.60;60.90;;;;;;5055114;28;20055;-68
2023/07/30 03:26:46;;;;;;;2.47;1.20;;;19.60;60.90;;;;;;5054364;28;20028;-68
2023/07/30 03:29:14;;;;;;;2.17;1.30;;;19.70;60.30;;;;;;5080265;28;20098;-68
2023/07/30 03:31:41;;;;;;;1.42;0.95;;;19.70;60.10;;;;;;5092894;28;20359;-68
2023/07/30 03:34:09;;;;;;;3.10;1.15;;;19.70;59.90;;;;;;5074360;28;20031;-68
2023/07/30 03:36:36;;;;;;;1.40;1.30;;;19.70;60.40;;;;;;5074513;28;20048;-68
2023/07/30 03:39:03;;;;;;;4.70;1.77;;;19.70;60.10;;;;;;5057852;28;20124;-68
2023/07/30 03:41:31;;;;;;;1.83;1.20;;;19.80;59.70;;;;;;5092887;28;20040;-67
2023/07/30 03:43:58;;;;;;;2.42;1.30;;;19.80;59.60;;;;;;5074307;28;20070;-67
2023/07/30 03:46:25;;;;;;;2.65;1.20;;;19.80;59.60;;;;;;5092442;28;20032;-67
2023/07/30 03:48:52;;;;;;;3.85;1.20;;;19.80;59.60;;;;;;5092505;28;20040;-68
2023/07/30 10:57:32;;;;;;;4.85;2.10;;;17.70;54.80;;;;;;5047140;28;20071;-67
2023/07/30 11:00:00;;;;;;;2.63;1.77;;;17.70;55.20;;;;;;5049043;28;20039;-67
2023/07/30 11:02:29;;;;;;;5.85;2.00;;;17.70;55.50;;;;;;5047156;28;20386;-66
2023/07/30 11:04:56;;;;;;;3.33;2.10;;;17.70;55.70;;;;;;5029526;28;20429;-67
2023/07/30 11:07:24;;;;;;;3.80;2.17;;;17.60;56.40;;;;;;5031455;28;20033;-67
2023/07/30 11:10:01;;;;;;;5.40;2.28;;;17.60;56.60;;;;;;5048957;28;20580;-67
2023/07/30 11:12:28;;;;;;;3.67;2.05;;;17.50;56.60;;;;;;5015544;28;20037;-67
2023/07/30 11:15:05;;;;;;;3.30;1.95;;;17.50;56.60;;;;;;5028495;28;20052;-66
2023/07/30 11:17:32;;;;;;;3.40;2.15;;;17.40;57.00;;;;;;5029032;28;20044;-67
2023/07/30 11:20:00;;;;;;;3.22;2.00;;;17.40;57.20;;;;;;5011599;28;20152;-67
2023/07/30 11:22:34;;;;;;;3.70;1.85;;;17.40;57.80;;;;;;5042391;28;20457;-67
2023/07/30 11:25:05;;;;;;;4.63;2.00;;;17.30;58.30;;;;;;5027362;28;20057;-67
2023/07/30 11:27:46;;;;;;;4.20;2.00;;;17.30;58.30;;;;;;5031823;28;20032;-67
2023/07/30 11:30:13;;;;;;;2.47;1.60;;;17.20;58.80;;;;;;5026674;28;20095;-67
2023/07/30 11:32:46;;;;;;;4.32;1.80;;;17.20;59.00;;;;;;5031267;28;20116;-67
2023/07/30 11:35:13;;;;;;;5.18;2.15;;;17.20;59.00;;;;;;5029558;28;20075;-66
2023/07/30 11:37:42;;;;;;;4.57;1.98;;;17.20;59.30;;;;;;5016413;28;20036;-67
2023/07/30 11:40:10;;;;;;;5.07;1.80;;;17.10;59.50;;;;;;5018697;28;20144;-67
2023/07/30 11:42:37;;;;;;;3.45;1.70;;;17.10;59.60;;;;;;5034964;28;21144;-68
2023/07/30 11:45:21;;;;;;;1.90;1.60;;;17.10;60.00;;;;;;5051399;28;20402;-66
2023/07/30 11:47:48;;;;;;;5.93;1.80;;;17.00;59.90;;;;;;5050720;28;20041;-66
2023/07/30 11:50:16;;;;;;;3.70;1.55;;;17.00;59.60;;;;;;5052670;28;20037;-66
2023/07/30 11:52:56;;;;;;;5.72;1.60;;;17.00;59.20;;;;;;5052700;28;20041;-66
